Time;durP1;ratioP1;P1;durP2;ratioP2;P2;SDS_P1;SDS_P2;PMS_P1;PMS_P2;Temp;Humidity;BMP_temperature;BMP_pressure;BME280_temperature;BME280_humidity;BME280_pressure;Samples;Min_cycle;Max_cycle;Signal;HPM_P1;HPM_P2
2021/01/23 00:01:39;;;;;;;;;;;1.80;99.90;;;;;;5014356;28;20362;-64
2021/01/23 00:04:06;;;;;;;;;;;1.90;99.90;;;;;;5015919;28;19928;-65
2021/01/23 00:06:32;;;;;;;;;;;1.90;1.00;;;;;;5017233;28;19921;-66
2021/01/23 00:08:58;;;;;;;;;;;1.90;99.90;;;;;;5017312;28;19976;-66
2021/01/23 00:11:24;;;;;;;;;;;1.90;99.90;;;;;;5017214;28;19921;-66
2021/01/23 00:13:50;;;;;;;;;;;1.90;99.90;;;;;;5016259;28;19937;-65
2021/01/23 00:16:16;;;;;;;;;;;1.90;99.90;;;;;;5016660;28;19944;-65
2021/01/23 00:18:42;;;;;;;;;;;1.90;99.90;;;;;;5016027;28;19922;-65
2021/01/23 00:21:08;;;;;;;;;;;1.90;99.90;;;;;;5013898;28;19928;-65
2021/01/23 00:23:36;;;;;;;;;;;1.90;99.90;;;;;;5013747;28;19922;-65
2021/01/23 00:26:02;;;;;;;;;;;1.90;99.90;;;;;;5013889;28;19932;-65
2021/01/23 00:28:28;;;;;;;;;;;1.90;99.90;;;;;;5013387;28;20393;-66
2021/01/23 00:30:54;;;;;;;;;;;1.90;99.90;;;;;;5013261;28;19921;-65
2021/01/23 00:33:20;;;;;;;;;;;1.80;99.90;;;;;;5013553;28;19929;-66
2021/01/23 00:35:46;;;;;;;;;;;1.80;99.90;;;;;;5013709;28;19976;-66
2021/01/23 00:38:13;;;;;;;;;;;1.80;99.90;;;;;;5013412;28;19921;-66
2021/01/23 00:40:40;;;;;;;;;;;1.80;99.90;;;;;;5012666;28;19922;-65
2021/01/23 00:43:06;;;;;;;;;;;1.80;99.90;;;;;;5012536;28;19967;-65
2021/01/23 00:45:32;;;;;;;;;;;1.80;99.90;;;;;;5013068;28;19925;-66
2021/01/23 00:47:58;;;;;;;;;;;1.80;99.90;;;;;;5012955;28;19996;-66
2021/01/23 00:50:24;;;;;;;;;;;1.70;99.90;;;;;;5012509;28;19975;-66
2021/01/23 00:52:50;;;;;;;;;;;1.70;99.90;;;;;;5012332;28;19925;-67
2021/01/23 00:55:16;;;;;;;;;;;1.70;99.90;;;;;;5012690;28;19922;-67
2021/01/23 00:57:43;;;;;;;;;;;1.70;99.90;;;;;;5012478;28;20535;-65
2021/01/23 01:00:09;;;;;;;;;;;1.70;99.90;;;;;;5012717;28;19922;-66
2021/01/23 01:02:35;;;;;;;;;;;1.70;99.90;;;;;;5012316;28;19921;-66
2021/01/23 01:05:01;;;;;;;;;;;1.70;99.90;;;;;;5012436;28;19921;-66
2021/01/23 01:07:27;;;;;;;;;;;1.70;99.90;;;;;;5012134;28;20372;-65
2021/01/23 01:09:53;;;;;;;;;;;1.70;99.90;;;;;;5012191;28;19967;-66
2021/01/23 01:12:19;;;;;;;;;;;1.70;99.90;;;;;;5012172;28;19988;-66
2021/01/23 01:14:46;;;;;;;;;;;1.70;99.90;;;;;;5012118;28;20341;-66
2021/01/23 01:17:13;;;;;;;;;;;1.70;99.90;;;;;;5016320;28;19921;-66
2021/01/23 01:19:39;;;;;;;;;;;1.70;99.90;;;;;;5015977;28;20016;-66
2021/01/23 01:22:05;;;;;;;;;;;1.60;99.90;;;;;;5016191;28;19921;-66
2021/01/23 01:24:31;;;;;;;;;;;1.60;1.00;;;;;;5015408;28;19972;-66
2021/01/23 01:26:57;;;;;;;;;;;1.60;1.00;;;;;;5015833;28;19921;-66
2021/01/23 01:29:23;;;;;;;;;;;1.60;1.00;;;;;;5015936;28;20298;-66
2021/01/23 01:31:50;;;;;;;;;;;1.60;1.00;;;;;;5015612;28;19928;-65
2021/01/23 01:34:16;;;;;;;;;;;1.70;1.00;;;;;;5015528;28;19925;-65
2021/01/23 01:36:42;;;;;;;;;;;1.70;1.00;;;;;;5015849;28;19967;-66
2021/01/23 01:39:08;;;;;;;;;;;1.70;1.00;;;;;;5015701;28;19922;-65
2021/01/23 01:41:36;;;;;;;;;;;1.70;1.00;;;;;;5015556;28;19921;-65
2021/01/23 01:44:02;;;;;;;;;;;1.70;1.00;;;;;;5015373;28;19921;-66
2021/01/23 01:46:28;;;;;;;;;;;1.60;1.00;;;;;;5015541;28;20437;-65
2021/01/23 01:48:56;;;;;;;;;;;1.60;1.00;;;;;;5015486;28;19929;-66
2021/01/23 01:51:22;;;;;;;;;;;1.70;1.00;;;;;;5015402;28;19928;-66
2021/01/23 01:53:48;;;;;;;;;;;1.70;1.00;;;;;;5014779;28;19921;-66
2021/01/23 01:56:14;;;;;;;;;;;1.70;1.00;;;;;;5015905;28;19921;-67
2021/01/23 01:58:40;;;;;;;;;;;1.80;99.90;;;;;;5015367;28;20366;-67
2021/01/23 02:01:06;;;;;;;;;;;1.80;99.90;;;;;;5015614;28;19921;-67
2021/01/23 02:03:38;;;;;;;;;;;1.80;99.90;;;;;;5015135;28;19928;-66
2021/01/23 02:06:12;;;;;;;;;;;1.80;99.90;;;;;;5015080;28;19941;-66
2021/01/23 02:08:44;;;;;;;;;;;1.80;99.90;;;;;;5015289;28;19933;-65
2021/01/23 02:11:14;;;;;;;;;;;1.80;99.90;;;;;;5015153;28;19921;-65
2021/01/23 02:13:44;;;;;;;;;;;1.80;99.90;;;;;;5014766;28;20007;-66
2021/01/23 02:16:13;;;;;;;;;;;1.80;99.90;;;;;;5014877;28;19928;-65
2021/01/23 02:18:40;;;;;;;;;;;1.90;99.90;;;;;;5014941;28;20297;-66
2021/01/23 02:21:31;;;;;;;;;;;1.80;93.80;;;;;;5014936;28;19936;-65
2021/01/23 02:23:59;;;;;;;;;;;1.90;3.80;;;;;;5014601;28;20346;-65
2021/01/23 02:26:29;;;;;;;;;;;1.90;1.00;;;;;;5014220;28;20004;-65
2021/01/23 02:29:06;;;;;;;;;;;1.80;1.00;;;;;;5014429;28;19925;-65
2021/01/23 02:31:35;;;;;;;;;;;1.90;1.00;;;;;;5014923;28;19922;-65
2021/01/23 02:34:02;;;;;;;;;;;1.90;1.00;;;;;;5014498;28;19928;-65
2021/01/23 02:36:29;;;;;;;;;;;1.90;1.00;;;;;;5014851;28;20020;-66
2021/01/23 02:38:55;;;;;;;;;;;1.90;1.00;;;;;;5014429;28;20389;-65
2021/01/23 02:41:21;;;;;;;;;;;1.90;1.00;;;;;;5014589;28;20438;-65
2021/01/23 02:43:47;;;;;;;;;;;1.90;1.00;;;;;;5014140;28;19922;-66
2021/01/23 02:46:14;;;;;;;;;;;1.90;1.00;;;;;;5014682;28;19925;-66
2021/01/23 02:48:41;;;;;;;;;;;1.90;99.90;;;;;;5014341;28;19928;-66
2021/01/23 02:51:11;;;;;;;;;;;1.90;1.00;;;;;;5014183;28;19926;-66
2021/01/23 02:53:38;;;;;;;;;;;1.90;99.90;;;;;;5013729;28;19955;-64
2021/01/23 02:56:07;;;;;;;;;;;1.90;1.00;;;;;;5014247;28;19976;-65
2021/01/23 02:58:35;;;;;;;;;;;1.90;1.00;;;;;;5014025;28;19926;-65
2021/01/23 03:01:01;;;;;;;;;;;1.90;1.00;;;;;;5014100;28;19929;-65
2021/01/23 03:03:28;;;;;;;;;;;1.90;1.00;;;;;;5013865;28;19921;-65
2021/01/23 03:05:55;;;;;;;;;;;1.90;1.00;;;;;;5014170;28;19925;-66
2021/01/23 03:08:21;;;;;;;;;;;1.90;99.90;;;;;;5013948;28;19928;-66
2021/01/23 03:10:47;;;;;;;;;;;1.90;1.00;;;;;;5013643;28;20378;-66
2021/01/23 03:13:14;;;;;;;;;;;1.90;99.90;;;;;;5013636;28;20301;-65
2021/01/23 03:15:40;;;;;;;;;;;1.90;99.90;;;;;;5013791;28;20436;-66
2021/01/23 03:18:06;;;;;;;;;;;1.90;99.90;;;;;;5013992;28;19975;-65
2021/01/23 03:20:32;;;;;;;;;;;1.90;99.90;;;;;;5013801;28;19928;-65
2021/01/23 03:23:00;;;;;;;;;;;1.80;99.90;;;;;;5013607;28;19922;-65
2021/01/23 03:25:26;;;;;;;;;;;1.80;1.00;;;;;;5013749;28;19925;-67
2021/01/23 03:27:52;;;;;;;;;;;1.80;1.00;;;;;;5014231;28;19933;-66
2021/01/23 03:30:19;;;;;;;;;;;1.80;1.00;;;;;;5014037;28;19921;-66
2021/01/23 03:32:45;;;;;;;;;;;1.70;1.00;;;;;;5013919;28;19991;-65
2021/01/23 03:35:12;;;;;;;;;;;1.70;1.00;;;;;;5013706;28;19936;-65
2021/01/23 03:37:38;;;;;;;;;;;1.70;56.70;;;;;;5013353;28;20302;-65
2021/01/23 03:40:06;;;;;;;;;;;1.70;99.90;;;;;;5013453;28;19932;-65
2021/01/23 03:42:32;;;;;;;;;;;1.70;99.90;;;;;;5014047;28;20446;-65
2021/01/23 03:44:58;;;;;;;;;;;1.70;99.90;;;;;;5013612;28;20412;-65
2021/01/23 03:47:24;;;;;;;;;;;1.70;99.90;;;;;;5013941;28;20025;-65
2021/01/23 03:49:50;;;;;;;;;;;1.70;99.90;;;;;;5013409;28;19921;-65
2021/01/23 03:52:16;;;;;;;;;;;1.70;99.90;;;;;;5013232;28;19929;-65
2021/01/23 03:54:42;;;;;;;;;;;1.60;99.90;;;;;;5012690;28;19983;-65
2021/01/23 03:57:09;;;;;;;;;;;1.70;99.90;;;;;;5013398;28;19948;-66
2021/01/23 03:59:36;;;;;;;;;;;1.60;99.90;;;;;;5013014;28;19925;-65
2021/01/23 04:02:02;;;;;;;;;;;1.60;99.90;;;;;;5013165;28;19926;-64
2021/01/23 04:04:28;;;;;;;;;;;1.60;99.90;;;;;;5013127;28;19921;-64
2021/01/23 04:06:54;;;;;;;;;;;1.60;99.90;;;;;;5012985;28;19925;-65
2021/01/23 04:09:20;;;;;;;;;;;1.50;99.90;;;;;;5012856;28;19975;-65
2021/01/23 04:11:46;;;;;;;;;;;1.50;99.90;;;;;;5012753;28;20366;-64
2021/01/23 04:14:13;;;;;;;;;;;1.40;1.00;;;;;;5015636;28;19922;-65
2021/01/23 04:16:39;;;;;;;;;;;1.40;1.00;;;;;;5015083;28;19928;-65
2021/01/23 04:19:06;;;;;;;;;;;1.40;1.00;;;;;;5014509;28;19922;-65
2021/01/23 04:21:32;;;;;;;;;;;1.30;1.00;;;;;;5014338;28;20378;-65
2021/01/23 04:23:58;;;;;;;;;;;1.40;1.00;;;;;;5012545;28;19944;-65
2021/01/23 04:26:24;;;;;;;;;;;1.40;1.00;;;;;;5012903;28;20318;-65
2021/01/23 04:28:50;;;;;;;;;;;1.40;1.00;;;;;;5012656;28;19929;-65
2021/01/23 04:31:17;;;;;;;;;;;1.40;1.00;;;;;;5012682;28;19921;-65
2021/01/23 04:33:43;;;;;;;;;;;1.40;1.00;;;;;;5012296;28;19925;-65
2021/01/23 04:36:09;;;;;;;;;;;1.40;1.00;;;;;;5012478;28;19921;-66
2021/01/23 04:38:35;;;;;;;;;;;1.40;1.00;;;;;;5012431;28;19921;-65
2021/01/23 04:41:01;;;;;;;;;;;1.40;1.00;;;;;;5012559;28;19968;-65
2021/01/23 04:43:27;;;;;;;;;;;1.40;1.00;;;;;;5012560;28;19968;-65
2021/01/23 04:45:53;;;;;;;;;;;1.40;1.00;;;;;;5012507;28;19925;-65
2021/01/23 04:48:20;;;;;;;;;;;1.40;1.00;;;;;;5012804;28;19921;-65
2021/01/23 04:50:47;;;;;;;;;;;1.30;1.00;;;;;;5014364;28;19928;-65
2021/01/23 04:53:13;;;;;;;;;;;1.30;1.00;;;;;;5015911;28;19921;-65
2021/01/23 04:55:39;;;;;;;;;;;1.30;1.00;;;;;;5016628;28;20398;-65
2021/01/23 04:58:05;;;;;;;;;;;1.30;1.00;;;;;;5016712;28;19921;-65
2021/01/23 05:00:31;;;;;;;;;;;1.30;1.00;;;;;;5016477;28;20040;-65
2021/01/23 05:03:00;;;;;;;;;;;1.30;1.00;;;;;;5016468;28;19961;-65
2021/01/23 05:05:27;;;;;;;;;;;1.30;1.00;;;;;;5016128;28;20275;-66
2021/01/23 05:07:53;;;;;;;;;;;1.20;1.00;;;;;;5016300;28;19922;-65
2021/01/23 05:10:23;;;;;;;;;;;1.20;1.00;;;;;;4998174;28;19921;-65
2021/01/23 05:12:49;;;;;;;;;;;1.30;1.00;;;;;;4996583;28;19921;-65
2021/01/23 05:15:19;;;;;;;;;;;1.30;1.00;;;;;;4996154;28;19968;-65
2021/01/23 05:17:53;;;;;;;;;;;1.40;1.00;;;;;;4996465;28;20000;-65
2021/01/23 05:20:30;;;;;;;;;;;1.40;1.00;;;;;;4996444;28;19921;-65
2021/01/23 05:22:56;;;;;;;;;;;1.50;1.00;;;;;;4996524;28;20387;-65
2021/01/23 05:25:26;;;;;;;;;;;1.50;1.00;;;;;;4996654;28;20357;-65
2021/01/23 05:27:52;;;;;;;;;;;1.60;1.00;;;;;;4996701;28;19921;-66
2021/01/23 05:30:18;;;;;;;;;;;1.60;1.00;;;;;;4996317;28;19928;-66
2021/01/23 05:32:44;;;;;;;;;;;1.70;1.00;;;;;;4995882;28;19933;-66
2021/01/23 05:35:13;;;;;;;;;;;1.70;99.90;;;;;;4996279;28;19922;-66
2021/01/23 05:37:40;;;;;;;;;;;1.70;99.90;;;;;;4996196;28;19928;-66
2021/01/23 05:40:07;;;;;;;;;;;1.70;99.90;;;;;;4996089;28;19969;-66
2021/01/23 05:42:40;;;;;;;;;;;1.80;99.90;;;;;;4996370;28;19928;-65
2021/01/23 05:45:08;;;;;;;;;;;1.80;99.90;;;;;;4995540;28;20433;-65
2021/01/23 05:47:34;;;;;;;;;;;1.90;99.90;;;;;;4996307;28;19976;-65
2021/01/23 05:50:00;;;;;;;;;;;1.90;99.90;;;;;;4995833;28;20005;-65
2021/01/23 05:52:26;;;;;;;;;;;1.90;99.90;;;;;;4995791;28;20025;-66
2021/01/23 05:54:53;;;;;;;;;;;1.90;99.90;;;;;;4995382;28;19929;-66
2021/01/23 05:57:19;;;;;;;;;;;1.90;99.90;;;;;;4995807;28;19922;-65
2021/01/23 05:59:45;;;;;;;;;;;1.90;99.90;;;;;;4995552;28;19926;-66
2021/01/23 06:02:13;;;;;;;;;;;2.00;99.90;;;;;;4995404;28;19991;-66
2021/01/23 06:04:41;;;;;;;;;;;2.10;99.90;;;;;;4995542;28;19980;-65
2021/01/23 06:07:07;;;;;;;;;;;2.10;54.80;;;;;;4995565;28;20371;-66
2021/01/23 06:09:37;;;;;;;;;;;2.20;43.70;;;;;;4995371;28;19976;-65
2021/01/23 06:12:04;;;;;;;;;;;2.20;1.00;;;;;;4995332;28;19921;-65
2021/01/23 06:14:34;;;;;;;;;;;2.20;5.80;;;;;;4994789;28;19945;-66
2021/01/23 06:17:00;;;;;;;;;;;2.20;1.00;;;;;;4995656;28;19925;-65
2021/01/23 06:19:39;;;;;;;;;;;2.30;1.00;;;;;;4995423;28;19977;-66
2021/01/23 06:22:05;;;;;;;;;;;2.30;1.00;;;;;;4995207;28;19922;-65
2021/01/23 06:24:50;;;;;;;;;;;2.30;1.00;;;;;;4994687;28;20436;-66
2021/01/23 06:27:17;;;;;;;;;;;2.40;1.00;;;;;;4995474;28;19922;-65
2021/01/23 06:29:43;;;;;;;;;;;2.50;1.00;;;;;;4995015;28;19922;-65
2021/01/23 06:32:28;;;;;;;;;;;2.50;1.00;;;;;;4995158;28;19922;-65
2021/01/23 06:34:55;;;;;;;;;;;2.60;1.00;;;;;;4994525;28;20332;-66
2021/01/23 06:37:22;;;;;;;;;;;2.70;1.00;;;;;;4994847;28;20402;-65
2021/01/23 06:40:03;;;;;;;;;;;2.70;1.00;;;;;;4995170;28;20271;-65
2021/01/23 06:42:30;;;;;;;;;;;2.70;1.00;;;;;;4982003;28;19922;-66
2021/01/23 06:45:09;;;;;;;;;;;2.80;1.00;;;;;;4994693;28;19968;-66
2021/01/23 06:47:37;;;;;;;;;;;2.80;1.00;;;;;;4994657;28;19922;-66
2021/01/23 06:50:04;;;;;;;;;;;2.80;1.00;;;;;;4995090;28;19921;-65
2021/01/23 06:52:30;;;;;;;;;;;2.80;1.00;;;;;;4994548;28;20306;-66
2021/01/23 06:54:56;;;;;;;;;;;2.80;1.00;;;;;;4994539;28;19921;-67
2021/01/23 06:57:22;;;;;;;;;;;2.90;1.00;;;;;;4994775;28;19925;-66
2021/01/23 06:59:49;;;;;;;;;;;2.90;1.00;;;;;;4994332;28;19922;-66
2021/01/23 07:02:14;;;;;;;;;;;2.90;1.00;;;;;;4994334;28;19932;-66
2021/01/23 07:04:44;;;;;;;;;;;2.90;1.00;;;;;;4994174;28;19947;-66
2021/01/23 07:07:11;;;;;;;;;;;2.90;1.00;;;;;;4994569;28;19921;-66
2021/01/23 07:09:44;;;;;;;;;;;2.90;1.00;;;;;;4994188;28;19932;-66
2021/01/23 07:12:10;;;;;;;;;;;2.90;1.00;;;;;;4994239;28;20413;-66
2021/01/23 07:14:36;;;;;;;;;;;2.90;1.00;;;;;;4993270;28;20293;-66
2021/01/23 07:17:03;;;;;;;;;;;3.00;1.00;;;;;;4994007;28;19921;-66
2021/01/23 07:19:29;;;;;;;;;;;3.00;1.00;;;;;;4994087;28;20378;-66
2021/01/23 07:21:55;;;;;;;;;;;3.00;99.90;;;;;;4994137;28;19928;-66
2021/01/23 07:24:21;;;;;;;;;;;3.00;99.90;;;;;;4992049;28;19928;-65
2021/01/23 07:26:48;;;;;;;;;;;3.00;99.90;;;;;;5005458;28;19922;-66
2021/01/23 07:29:14;;;;;;;;;;;3.10;99.90;;;;;;5013212;28;19921;-66
2021/01/23 07:31:40;;;;;;;;;;;3.10;99.90;;;;;;5013381;28;20379;-66
2021/01/23 07:34:10;;;;;;;;;;;3.10;99.90;;;;;;5013024;28;19937;-66
2021/01/23 07:36:37;;;;;;;;;;;3.10;99.90;;;;;;5013793;28;19921;-66
2021/01/23 07:39:04;;;;;;;;;;;3.10;99.90;;;;;;5013109;28;19925;-67
2021/01/23 07:41:31;;;;;;;;;;;3.20;99.90;;;;;;5013241;28;19929;-66
2021/01/23 07:43:58;;;;;;;;;;;3.20;99.90;;;;;;5012788;28;20429;-66
2021/01/23 07:46:24;;;;;;;;;;;3.20;99.90;;;;;;5013611;28;20127;-66
2021/01/23 07:48:50;;;;;;;;;;;3.20;33.10;;;;;;5013243;28;19921;-66
2021/01/23 07:51:23;;;;;;;;;;;3.20;1.00;;;;;;5013014;28;19963;-66
2021/01/23 07:54:05;;;;;;;;;;;3.20;1.00;;;;;;5013059;28;19947;-66
2021/01/23 07:56:31;;;;;;;;;;;3.30;1.00;;;;;;5013231;28;19922;-65
2021/01/23 07:58:57;;;;;;;;;;;3.30;1.00;;;;;;5002182;28;19944;-65
2021/01/23 08:01:23;;;;;;;;;;;3.30;1.00;;;;;;5013219;28;19921;-66
2021/01/23 08:03:49;;;;;;;;;;;3.40;1.00;;;;;;5013359;28;19960;-66
2021/01/23 08:06:19;;;;;;;;;;;3.40;99.90;;;;;;5013433;28;20389;-65
2021/01/23 08:08:47;;;;;;;;;;;3.40;99.90;;;;;;5013062;28;19921;-63
2021/01/23 08:11:28;;;;;;;;;;;3.50;99.90;;;;;;5013058;28;19928;-66
2021/01/23 08:13:54;;;;;;;;;;;3.50;99.90;;;;;;5012079;28;19921;-66
2021/01/23 08:16:20;;;;;;;;;;;3.50;99.90;;;;;;5013031;28;19928;-66
2021/01/23 08:18:46;;;;;;;;;;;3.60;99.90;;;;;;5012627;28;19921;-66
2021/01/23 08:21:16;;;;;;;;;;;3.60;99.90;;;;;;5013164;28;19929;-67
2021/01/23 08:23:42;;;;;;;;;;;3.70;95.20;;;;;;5014868;28;20448;-66
2021/01/23 08:26:09;;;;;;;;;;;3.70;1.00;;;;;;5012089;28;19921;-64
2021/01/23 08:28:35;;;;;;;;;;;3.80;1.00;;;;;;5012620;28;19925;-65
2021/01/23 08:31:11;;;;;;;;;;;3.80;1.00;;;;;;5013920;28;20401;-67
2021/01/23 08:33:37;;;;;;;;;;;3.90;1.00;;;;;;5012572;28;19932;-66
2021/01/23 08:36:04;;;;;;;;;;;3.90;1.00;;;;;;5012631;28;20382;-67
2021/01/23 08:38:30;;;;;;;;;;;4.00;1.00;;;;;;5012268;28;20397;-66
2021/01/23 08:40:56;;;;;;;;;;;4.00;1.00;;;;;;5012790;28;20378;-65
2021/01/23 08:43:23;;;;;;;;;;;4.10;1.00;;;;;;5012624;28;19921;-67
2021/01/23 08:45:49;;;;;;;;;;;4.10;99.90;;;;;;5017908;28;19921;-68
2021/01/23 08:48:16;;;;;;;;;;;4.20;99.90;;;;;;5012448;28;19921;-68
2021/01/23 08:50:42;;;;;;;;;;;4.30;99.90;;;;;;5012507;28;20044;-68
2021/01/23 08:53:08;;;;;;;;;;;4.30;99.90;;;;;;5012363;28;19929;-67
2021/01/23 08:55:34;;;;;;;;;;;4.40;99.90;;;;;;5012275;28;20301;-66
2021/01/23 08:58:00;;;;;;;;;;;4.40;99.90;;;;;;5012742;28;19921;-67
2021/01/23 09:00:27;;;;;;;;;;;4.50;99.90;;;;;;5012796;28;19922;-67
2021/01/23 09:02:53;;;;;;;;;;;4.50;99.90;;;;;;5012947;28;19921;-67
2021/01/23 09:05:19;;;;;;;;;;;4.50;99.90;;;;;;5012536;28;19976;-67
2021/01/23 09:07:45;;;;;;;;;;;4.60;98.70;;;;;;5012080;28;20016;-65
2021/01/23 09:10:12;;;;;;;;;;;4.70;99.90;;;;;;5012867;28;19921;-65
2021/01/23 09:12:38;;;;;;;;;;;4.70;58.40;;;;;;5013701;28;20374;-68
2021/01/23 09:15:05;;;;;;;;;;;4.70;46.70;;;;;;5012832;28;19925;-69
2021/01/23 09:17:32;;;;;;;;;;;4.80;63.70;;;;;;5011497;28;19925;-67
2021/01/23 09:19:58;;;;;;;;;;;4.90;31.60;;;;;;5012807;28;19932;-66
2021/01/23 09:22:24;;;;;;;;;;;5.00;42.70;;;;;;5013190;28;19926;-69
2021/01/23 09:24:50;;;;;;;;;;;5.00;1.50;;;;;;5012461;28;19922;-66
2021/01/23 09:27:16;;;;;;;;;;;5.10;1.00;;;;;;5012835;28;19975;-65
2021/01/23 09:29:42;;;;;;;;;;;5.10;1.00;;;;;;5013561;28;20388;-67
2021/01/23 09:32:08;;;;;;;;;;;5.10;1.00;;;;;;5013063;28;19929;-66
2021/01/23 09:34:35;;;;;;;;;;;5.20;1.00;;;;;;5012312;28;19929;-66
2021/01/23 09:37:02;;;;;;;;;;;5.20;1.00;;;;;;5014411;28;19976;-66
2021/01/23 09:39:30;;;;;;;;;;;5.30;1.00;;;;;;5015984;28;19975;-66
2021/01/23 09:41:56;;;;;;;;;;;5.20;1.00;;;;;;5016327;28;20298;-66
2021/01/23 09:44:22;;;;;;;;;;;5.20;1.00;;;;;;5016621;28;19921;-65
2021/01/23 09:46:49;;;;;;;;;;;5.20;1.00;;;;;;5016294;28;19925;-65
2021/01/23 09:49:15;;;;;;;;;;;5.30;1.00;;;;;;5017232;28;19929;-67
2021/01/23 09:51:42;;;;;;;;;;;5.30;1.00;;;;;;5016077;28;20362;-67
2021/01/23 09:54:08;;;;;;;;;;;5.30;1.00;;;;;;5015552;28;19967;-66
2021/01/23 09:56:34;;;;;;;;;;;5.30;1.00;;;;;;5016009;28;19925;-67
2021/01/23 09:59:00;;;;;;;;;;;5.30;1.00;;;;;;5015626;28;19975;-65
2021/01/23 10:01:26;;;;;;;;;;;5.30;1.00;;;;;;5015120;28;19960;-67
2021/01/23 10:03:52;;;;;;;;;;;5.30;1.00;;;;;;5015585;28;19944;-67
2021/01/23 10:06:18;;;;;;;;;;;5.30;1.00;;;;;;5014702;28;19925;-69
2021/01/23 10:08:45;;;;;;;;;;;5.40;1.00;;;;;;5015394;28;19925;-67
2021/01/23 10:11:11;;;;;;;;;;;5.50;1.00;;;;;;5017094;28;19922;-69
2021/01/23 10:13:37;;;;;;;;;;;5.60;1.00;;;;;;5014641;28;19968;-67
2021/01/23 10:16:03;;;;;;;;;;;5.70;1.00;;;;;;5014930;28;19933;-68
2021/01/23 10:18:34;;;;;;;;;;;5.80;1.00;;;;;;5014741;28;19921;-67
2021/01/23 10:21:00;;;;;;;;;;;5.90;1.00;;;;;;5015077;28;19926;-68
2021/01/23 10:23:26;;;;;;;;;;;5.90;1.00;;;;;;5015220;28;19937;-67
2021/01/23 10:25:53;;;;;;;;;;;5.80;1.00;;;;;;5014800;28;19921;-68
2021/01/23 10:28:19;;;;;;;;;;;5.90;1.00;;;;;;5015619;28;19968;-67
2021/01/23 10:30:45;;;;;;;;;;;5.80;1.00;;;;;;5014935;28;19933;-68
2021/01/23 10:33:11;;;;;;;;;;;5.90;1.00;;;;;;5014851;28;20378;-68
2021/01/23 10:35:37;;;;;;;;;;;5.90;1.00;;;;;;5014320;28;19968;-68
2021/01/23 10:38:03;;;;;;;;;;;5.90;1.00;;;;;;5014308;28;19921;-67
2021/01/23 10:40:29;;;;;;;;;;;5.80;1.00;;;;;;5014872;28;19925;-67
2021/01/23 10:42:56;;;;;;;;;;;5.70;1.00;;;;;;5014349;28;19921;-68
2021/01/23 10:45:22;;;;;;;;;;;5.60;1.00;;;;;;5014775;28;19971;-66
2021/01/23 10:47:48;;;;;;;;;;;5.80;1.00;;;;;;5015020;28;19921;-66
2021/01/23 10:50:14;;;;;;;;;;;6.00;99.90;;;;;;5014750;28;19925;-66
2021/01/23 10:52:40;;;;;;;;;;;6.10;1.00;;;;;;5015168;28;19921;-67
2021/01/23 10:55:07;;;;;;;;;;;6.10;1.00;;;;;;5014530;28;19928;-67
2021/01/23 10:57:33;;;;;;;;;;;6.10;1.00;;;;;;5014049;28;20390;-67
2021/01/23 11:00:00;;;;;;;;;;;6.10;1.00;;;;;;5014188;28;19952;-66
2021/01/23 11:02:26;;;;;;;;;;;6.10;1.00;;;;;;5014838;28;19922;-67
2021/01/23 11:04:52;;;;;;;;;;;6.00;1.00;;;;;;5014464;28;19925;-67
2021/01/23 11:07:18;;;;;;;;;;;6.10;1.00;;;;;;5014052;28;19921;-66
2021/01/23 11:09:44;;;;;;;;;;;6.10;1.00;;;;;;5013990;28;19925;-65
2021/01/23 11:12:10;;;;;;;;;;;6.10;1.00;;;;;;5013983;28;19921;-64
2021/01/23 11:14:36;;;;;;;;;;;6.10;1.00;;;;;;5014673;28;19976;-65
2021/01/23 11:17:03;;;;;;;;;;;6.10;1.00;;;;;;5015829;28;19926;-65
2021/01/23 11:19:29;;;;;;;;;;;6.10;1.00;;;;;;5014774;28;19929;-66
2021/01/23 11:21:55;;;;;;;;;;;6.20;1.00;;;;;;5014479;28;20457;-66
2021/01/23 11:24:21;;;;;;;;;;;6.30;1.00;;;;;;5013599;28;19922;-63
2021/01/23 11:26:47;;;;;;;;;;;6.30;1.00;;;;;;5013982;28;19921;-64
2021/01/23 11:29:13;;;;;;;;;;;6.50;1.00;;;;;;5014012;28;19928;-65
2021/01/23 11:31:39;;;;;;;;;;;6.60;1.00;;;;;;5014014;28;19921;-65
2021/01/23 11:34:06;;;;;;;;;;;6.70;1.00;;;;;;5014017;28;19996;-64
2021/01/23 11:36:32;;;;;;;;;;;6.50;1.00;;;;;;5018435;28;19972;-67
2021/01/23 11:38:59;;;;;;;;;;;6.50;1.00;;;;;;5014112;28;19928;-65
2021/01/23 11:41:25;;;;;;;;;;;6.50;1.00;;;;;;5015122;28;19964;-66
2021/01/23 11:43:51;;;;;;;;;;;6.60;1.00;;;;;;5015791;28;19921;-66
2021/01/23 11:46:17;;;;;;;;;;;6.60;1.00;;;;;;5013809;28;19933;-65
2021/01/23 11:48:44;;;;;;;;;;;6.70;1.00;;;;;;5014581;28;19921;-67
2021/01/23 11:51:11;;;;;;;;;;;6.80;1.00;;;;;;5014204;28;19928;-64
2021/01/23 11:53:37;;;;;;;;;;;6.90;1.00;;;;;;5013458;28;19922;-65
2021/01/23 11:56:03;;;;;;;;;;;7.00;1.00;;;;;;5013453;28;19921;-66
2021/01/23 11:58:29;;;;;;;;;;;7.00;1.00;;;;;;5013383;28;19922;-65
2021/01/23 12:00:55;;;;;;;;;;;7.10;1.00;;;;;;5013195;28;20337;-65
2021/01/23 12:03:21;;;;;;;;;;;7.20;99.90;;;;;;5014490;28;19976;-64
2021/01/23 12:05:47;;;;;;;;;;;7.30;1.00;;;;;;5013745;28;19921;-63
2021/01/23 12:08:14;;;;;;;;;;;7.30;99.90;;;;;;5014094;28;19921;-63
2021/01/23 12:10:40;;;;;;;;;;;7.10;99.90;;;;;;5013913;28;19979;-63
2021/01/23 12:13:06;;;;;;;;;;;7.10;99.90;;;;;;5014307;28;19922;-63
2021/01/23 12:15:32;;;;;;;;;;;6.90;99.90;;;;;;5013400;28;19925;-63
2021/01/23 12:17:58;;;;;;;;;;;6.70;99.90;;;;;;5013515;28;19945;-62
2021/01/23 12:20:24;;;;;;;;;;;6.70;99.90;;;;;;5013803;28;19929;-65
2021/01/23 12:22:50;;;;;;;;;;;6.60;99.90;;;;;;5013465;28;19929;-64
2021/01/23 12:25:17;;;;;;;;;;;6.40;99.90;;;;;;5013382;28;19921;-65
2021/01/23 12:27:43;;;;;;;;;;;6.30;99.90;;;;;;5013748;28;19983;-63
2021/01/23 12:30:11;;;;;;;;;;;6.20;99.90;;;;;;5014970;28;19922;-65
2021/01/23 12:32:37;;;;;;;;;;;6.10;99.90;;;;;;5016483;28;19921;-65
2021/01/23 12:35:04;;;;;;;;;;;6.10;99.90;;;;;;5016823;28;19921;-64
2021/01/23 12:37:30;;;;;;;;;;;6.10;99.90;;;;;;5017765;28;19943;-64
2021/01/23 12:39:56;;;;;;;;;;;6.10;99.90;;;;;;5016967;28;19980;-65
2021/01/23 12:42:23;;;;;;;;;;;6.00;99.90;;;;;;5013118;28;19921;-65
2021/01/23 12:44:49;;;;;;;;;;;6.00;99.90;;;;;;5011818;28;19952;-66
2021/01/23 12:47:15;;;;;;;;;;;6.00;99.90;;;;;;5012670;28;19921;-66
2021/01/23 12:49:41;;;;;;;;;;;6.10;99.90;;;;;;5012559;28;19967;-66
2021/01/23 12:52:07;;;;;;;;;;;6.20;99.90;;;;;;5012449;28;19944;-66
2021/01/23 12:54:33;;;;;;;;;;;6.30;99.90;;;;;;5012618;28;19921;-67
2021/01/23 12:56:59;;;;;;;;;;;6.40;99.90;;;;;;5013809;28;19968;-64
2021/01/23 12:59:26;;;;;;;;;;;6.50;99.90;;;;;;5012901;28;20306;-65
2021/01/23 13:01:52;;;;;;;;;;;6.60;99.90;;;;;;5012640;28;19921;-64
2021/01/23 13:04:18;;;;;;;;;;;6.50;99.90;;;;;;5012615;28;19975;-65
2021/01/23 13:06:44;;;;;;;;;;;6.50;99.90;;;;;;5012702;28;19991;-64
2021/01/23 13:09:10;;;;;;;;;;;6.60;99.90;;;;;;5012447;28;20472;-63
2021/01/23 13:11:36;;;;;;;;;;;6.60;99.90;;;;;;5013748;28;19929;-63
2021/01/23 13:14:03;;;;;;;;;;;6.50;99.90;;;;;;5016449;28;19983;-63
2021/01/23 13:16:31;;;;;;;;;;;6.50;99.90;;;;;;5016488;28;19922;-64
2021/01/23 13:18:57;;;;;;;;;;;6.50;99.90;;;;;;5017893;28;19984;-64
2021/01/23 13:21:23;;;;;;;;;;;6.50;99.90;;;;;;5016035;28;19921;-63
2021/01/23 13:23:51;;;;;;;;;;;6.50;99.90;;;;;;5015604;28;19928;-65
2021/01/23 13:26:18;;;;;;;;;;;6.50;99.90;;;;;;5015235;28;19921;-64
2021/01/23 13:28:44;;;;;;;;;;;6.40;99.90;;;;;;5015869;28;20370;-63
2021/01/23 13:31:10;;;;;;;;;;;6.50;99.90;;;;;;5015859;28;19922;-63
2021/01/23 13:33:37;;;;;;;;;;;6.50;99.90;;;;;;5016380;28;19956;-64
2021/01/23 13:36:03;;;;;;;;;;;6.50;99.90;;;;;;5015620;28;19997;-63
2021/01/23 13:38:29;;;;;;;;;;;6.50;99.90;;;;;;5016097;28;20370;-62
2021/01/23 13:40:55;;;;;;;;;;;6.40;99.90;;;;;;5016104;28;19929;-62
2021/01/23 13:43:21;;;;;;;;;;;6.30;99.90;;;;;;5016245;28;19921;-63
2021/01/23 13:45:47;;;;;;;;;;;6.40;99.90;;;;;;5015357;28;19953;-64
2021/01/23 13:48:13;;;;;;;;;;;6.30;99.90;;;;;;5015399;28;19929;-64
2021/01/23 13:50:40;;;;;;;;;;;6.30;99.90;;;;;;5015294;28;20393;-63
2021/01/23 13:53:07;;;;;;;;;;;6.30;99.90;;;;;;5015284;28;19984;-64
2021/01/23 13:55:33;;;;;;;;;;;6.30;99.90;;;;;;5015267;28;20370;-63
2021/01/23 13:57:59;;;;;;;;;;;6.40;99.90;;;;;;5015521;28;19968;-64
2021/01/23 14:00:25;;;;;;;;;;;6.50;99.90;;;;;;5015452;28;20329;-65
2021/01/23 14:02:51;;;;;;;;;;;6.60;99.90;;;;;;5018118;28;19912;-64
2021/01/23 14:05:17;;;;;;;;;;;6.60;99.90;;;;;;5014805;28;19925;-64
2021/01/23 14:07:44;;;;;;;;;;;6.60;99.90;;;;;;5015153;28;19928;-65
2021/01/23 14:10:10;;;;;;;;;;;6.70;99.90;;;;;;5014937;28;19929;-64
2021/01/23 14:12:36;;;;;;;;;;;6.70;99.90;;;;;;5015342;28;19928;-64
2021/01/23 14:15:03;;;;;;;;;;;6.70;99.90;;;;;;5015579;28;19921;-64
2021/01/23 14:17:29;;;;;;;;;;;6.80;99.90;;;;;;5016780;28;19921;-63
2021/01/23 14:19:55;;;;;;;;;;;6.70;99.90;;;;;;5016843;28;19921;-63
2021/01/23 14:22:21;;;;;;;;;;;6.70;99.90;;;;;;5017857;28;20020;-64
2021/01/23 14:24:50;;;;;;;;;;;6.60;99.90;;;;;;5019734;28;19922;-64
2021/01/23 14:27:17;;;;;;;;;;;6.60;99.90;;;;;;5015360;28;20008;-64
2021/01/23 14:29:43;;;;;;;;;;;6.50;99.90;;;;;;5015845;28;19971;-64
2021/01/23 14:32:09;;;;;;;;;;;6.50;99.90;;;;;;5016316;28;19921;-64
2021/01/23 14:34:35;;;;;;;;;;;6.40;99.90;;;;;;5016005;28;19929;-63